sensor_id;sensor_type;location;lat;lon;timestamp;temperature;humidity
33328;DHT22;19692;52.998;9.116;2023-05-10T00:02:09;16.00;99.90
33328;DHT22;19692;52.998;9.116;2023-05-10T00:04:35;15.90;99.90
33328;DHT22;19692;52.998;9.116;2023-05-10T00:07:00;15.90;99.90
33328;DHT22;19692;52.998;9.116;2023-05-10T00:09:26;15.80;99.90
33328;DHT22;19692;52.998;9.116;2023-05-10T00:11:52;15.80;99.90
33328;DHT22;19692;52.998;9.116;2023-05-10T00:14:18;15.80;99.90
33328;DHT22;19692;52.998;9.116;2023-05-10T00:16:44;15.80;99.90
33328;DHT22;19692;52.998;9.116;2023-05-10T00:19:10;15.80;99.90
33328;DHT22;19692;52.998;9.116;2023-05-10T00:21:36;15.80;99.90
33328;DHT22;19692;52.998;9.116;2023-05-10T00:24:02;15.80;99.90
33328;DHT22;19692;52.998;9.116;2023-05-10T00:26:28;15.80;99.90
33328;DHT22;19692;52.998;9.116;2023-05-10T00:28:53;15.70;99.90
33328;DHT22;19692;52.998;9.116;2023-05-10T00:31:19;15.70;99.90
33328;DHT22;19692;52.998;9.116;2023-05-10T00:33:45;15.60;99.90
33328;DHT22;19692;52.998;9.116;2023-05-10T00:36:11;15.60;99.90
33328;DHT22;19692;52.998;9.116;2023-05-10T00:38:37;15.60;99.90
33328;DHT22;19692;52.998;9.116;2023-05-10T00:41:03;15.50;99.90
33328;DHT22;19692;52.998;9.116;2023-05-10T00:43:29;15.50;99.90
33328;DHT22;19692;52.998;9.116;2023-05-10T00:45:54;15.40;99.90
33328;DHT22;19692;52.998;9.116;2023-05-10T00:48:20;15.30;99.90
33328;DHT22;19692;52.998;9.116;2023-05-10T00:50:47;15.20;99.90
33328;DHT22;19692;52.998;9.116;2023-05-10T00:53:14;15.20;99.90
33328;DHT22;19692;52.998;9.116;2023-05-10T00:55:40;15.20;99.90
33328;DHT22;19692;52.998;9.116;2023-05-10T00:58:07;15.30;99.90
33328;DHT22;19692;52.998;9.116;2023-05-10T01:00:33;15.20;99.90
33328;DHT22;19692;52.998;9.116;2023-05-10T01:02:59;15.10;99.90
33328;DHT22;19692;52.998;9.116;2023-05-10T01:05:25;15.20;99.90
33328;DHT22;19692;52.998;9.116;2023-05-10T01:07:52;15.20;99.90
33328;DHT22;19692;52.998;9.116;2023-05-10T01:10:18;15.20;99.90
33328;DHT22;19692;52.998;9.116;2023-05-10T01:12:46;15.30;99.90
33328;DHT22;19692;52.998;9.116;2023-05-10T01:15:13;15.30;99.90
33328;DHT22;19692;52.998;9.116;2023-05-10T01:17:40;15.30;99.90
33328;DHT22;19692;52.998;9.116;2023-05-10T01:20:09;15.30;99.90
33328;DHT22;19692;52.998;9.116;2023-05-10T01:29:06;15.00;99.90
33328;DHT22;19692;52.998;9.116;2023-05-10T01:34:53;14.90;99.90
33328;DHT22;19692;52.998;9.116;2023-05-10T01:37:27;14.90;99.90
33328;DHT22;19692;52.998;9.116;2023-05-10T01:40:32;14.90;99.90
33328;DHT22;19692;52.998;9.116;2023-05-10T01:43:03;14.90;99.90
33328;DHT22;19692;52.998;9.116;2023-05-10T01:48:30;14.90;99.90
33328;DHT22;19692;52.998;9.116;2023-05-10T01:50:57;14.80;99.90
33328;DHT22;19692;52.998;9.116;2023-05-10T01:53:23;14.80;99.90
33328;DHT22;19692;52.998;9.116;2023-05-10T01:55:52;14.90;99.90
33328;DHT22;19692;52.998;9.116;2023-05-10T01:58:28;14.80;99.90
33328;DHT22;19692;52.998;9.116;2023-05-10T02:00:58;14.80;99.90
33328;DHT22;19692;52.998;9.116;2023-05-10T02:03:27;14.80;99.90
33328;DHT22;19692;52.998;9.116;2023-05-10T02:05:54;14.80;99.90
33328;DHT22;19692;52.998;9.116;2023-05-10T02:08:22;14.80;99.90
33328;DHT22;19692;52.998;9.116;2023-05-10T02:10:50;14.80;99.90
33328;DHT22;19692;52.998;9.116;2023-05-10T02:13:18;14.80;99.90
33328;DHT22;19692;52.998;9.116;2023-05-10T02:15:47;14.70;99.90
33328;DHT22;19692;52.998;9.116;2023-05-10T02:18:13;14.70;99.90
33328;DHT22;19692;52.998;9.116;2023-05-10T02:20:41;14.70;99.90
33328;DHT22;19692;52.998;9.116;2023-05-10T02:23:09;14.80;99.90
33328;DHT22;19692;52.998;9.116;2023-05-10T02:25:37;14.80;99.90
33328;DHT22;19692;52.998;9.116;2023-05-10T02:28:05;14.80;99.90
33328;DHT22;19692;52.998;9.116;2023-05-10T02:30:33;14.80;99.90
33328;DHT22;19692;52.998;9.116;2023-05-10T02:33:01;14.70;99.90
33328;DHT22;19692;52.998;9.116;2023-05-10T02:35:30;14.70;99.90
33328;DHT22;19692;52.998;9.116;2023-05-10T02:37:58;14.70;99.90
33328;DHT22;19692;52.998;9.116;2023-05-10T02:40:25;14.60;99.90
33328;DHT22;19692;52.998;9.116;2023-05-10T02:42:54;14.50;99.90
33328;DHT22;19692;52.998;9.116;2023-05-10T02:45:24;14.50;99.90
33328;DHT22;19692;52.998;9.116;2023-05-10T02:47:53;14.50;99.90
33328;DHT22;19692;52.998;9.116;2023-05-10T02:50:19;14.50;99.90
33328;DHT22;19692;52.998;9.116;2023-05-10T02:52:49;14.50;99.90
33328;DHT22;19692;52.998;9.116;2023-05-10T02:55:21;14.50;99.90
33328;DHT22;19692;52.998;9.116;2023-05-10T02:57:59;14.50;99.90
33328;DHT22;19692;52.998;9.116;2023-05-10T03:00:26;14.60;99.90
33328;DHT22;19692;52.998;9.116;2023-05-10T03:02:52;14.50;99.90
33328;DHT22;19692;52.998;9.116;2023-05-10T03:05:18;14.50;99.90
33328;DHT22;19692;52.998;9.116;2023-05-10T03:07:45;14.40;99.90
33328;DHT22;19692;52.998;9.116;2023-05-10T03:10:11;14.40;99.90
33328;DHT22;19692;52.998;9.116;2023-05-10T03:13:01;14.30;99.90
33328;DHT22;19692;52.998;9.116;2023-05-10T03:18:53;14.30;99.90
33328;DHT22;19692;52.998;9.116;2023-05-10T03:21:22;14.20;99.90
33328;DHT22;19692;52.998;9.116;2023-05-10T03:23:58;14.20;99.90
33328;DHT22;19692;52.998;9.116;2023-05-10T03:26:27;14.20;99.90
33328;DHT22;19692;52.998;9.116;2023-05-10T03:28:54;14.20;99.90
33328;DHT22;19692;52.998;9.116;2023-05-10T03:31:21;14.20;99.90
33328;DHT22;19692;52.998;9.116;2023-05-10T03:33:51;14.20;99.90
33328;DHT22;19692;52.998;9.116;2023-05-10T03:36:17;14.20;99.90
33328;DHT22;19692;52.998;9.116;2023-05-10T03:38:43;14.20;99.90
33328;DHT22;19692;52.998;9.116;2023-05-10T03:41:09;14.10;99.90
33328;DHT22;19692;52.998;9.116;2023-05-10T03:43:35;14.10;99.90
33328;DHT22;19692;52.998;9.116;2023-05-10T03:46:04;14.20;99.90
33328;DHT22;19692;52.998;9.116;2023-05-10T03:48:32;14.20;99.90
33328;DHT22;19692;52.998;9.116;2023-05-10T03:50:58;14.10;99.90
33328;DHT22;19692;52.998;9.116;2023-05-10T03:53:24;14.20;99.90
33328;DHT22;19692;52.998;9.116;2023-05-10T03:55:49;14.10;99.90
33328;DHT22;19692;52.998;9.116;2023-05-10T03:58:15;14.10;99.90
33328;DHT22;19692;52.998;9.116;2023-05-10T04:00:41;14.00;99.90
33328;DHT22;19692;52.998;9.116;2023-05-10T04:03:12;14.10;99.90
33328;DHT22;19692;52.998;9.116;2023-05-10T04:05:38;14.10;99.90
33328;DHT22;19692;52.998;9.116;2023-05-10T04:08:04;14.10;99.90
33328;DHT22;19692;52.998;9.116;2023-05-10T04:10:31;14.20;99.90
33328;DHT22;19692;52.998;9.116;2023-05-10T04:12:57;14.20;99.90
33328;DHT22;19692;52.998;9.116;2023-05-10T04:15:23;14.20;99.90
33328;DHT22;19692;52.998;9.116;2023-05-10T04:17:48;14.20;99.90
33328;DHT22;19692;52.998;9.116;2023-05-10T04:20:14;14.20;99.90
33328;DHT22;19692;52.998;9.116;2023-05-10T04:22:40;14.10;99.90
33328;DHT22;19692;52.998;9.116;2023-05-10T04:25:06;14.10;99.90
33328;DHT22;19692;52.998;9.116;2023-05-10T04:27:32;14.10;99.90
33328;DHT22;19692;52.998;9.116;2023-05-10T04:29:58;14.10;99.90
33328;DHT22;19692;52.998;9.116;2023-05-10T04:32:24;14.10;99.90
33328;DHT22;19692;52.998;9.116;2023-05-10T04:34:50;14.10;99.90
33328;DHT22;19692;52.998;9.116;2023-05-10T04:37:18;14.10;99.90
33328;DHT22;19692;52.998;9.116;2023-05-10T04:39:44;14.10;99.90
33328;DHT22;19692;52.998;9.116;2023-05-10T04:42:10;14.10;99.90
33328;DHT22;19692;52.998;9.116;2023-05-10T04:44:36;14.00;99.90
33328;DHT22;19692;52.998;9.116;2023-05-10T04:47:02;14.00;99.90
33328;DHT22;19692;52.998;9.116;2023-05-10T04:49:29;13.90;99.90
33328;DHT22;19692;52.998;9.116;2023-05-10T04:51:55;13.90;99.90
33328;DHT22;19692;52.998;9.116;2023-05-10T04:54:21;13.80;99.90
33328;DHT22;19692;52.998;9.116;2023-05-10T04:56:47;13.80;99.90
33328;DHT22;19692;52.998;9.116;2023-05-10T04:59:13;13.80;99.90
33328;DHT22;19692;52.998;9.116;2023-05-10T05:01:39;13.70;99.90
33328;DHT22;19692;52.998;9.116;2023-05-10T05:04:05;13.70;99.90
33328;DHT22;19692;52.998;9.116;2023-05-10T05:06:30;13.70;99.90
33328;DHT22;19692;52.998;9.116;2023-05-10T05:08:56;13.50;99.90
33328;DHT22;19692;52.998;9.116;2023-05-10T05:11:22;13.40;99.90
33328;DHT22;19692;52.998;9.116;2023-05-10T05:13:48;13.30;99.90
33328;DHT22;19692;52.998;9.116;2023-05-10T05:16:13;13.40;99.90
33328;DHT22;19692;52.998;9.116;2023-05-10T05:18:39;13.30;99.90
33328;DHT22;19692;52.998;9.116;2023-05-10T05:21:32;13.30;99.90
33328;DHT22;19692;52.998;9.116;2023-05-10T05:23:57;13.40;99.90
33328;DHT22;19692;52.998;9.116;2023-05-10T05:26:23;13.40;99.90
33328;DHT22;19692;52.998;9.116;2023-05-10T05:28:49;13.40;99.90
33328;DHT22;19692;52.998;9.116;2023-05-10T05:31:17;13.30;99.90
33328;DHT22;19692;52.998;9.116;2023-05-10T05:33:44;13.30;99.90
33328;DHT22;19692;52.998;9.116;2023-05-10T05:36:10;13.20;99.90
33328;DHT22;19692;52.998;9.116;2023-05-10T05:38:35;13.20;99.90
33328;DHT22;19692;52.998;9.116;2023-05-10T05:41:01;13.10;99.90
33328;DHT22;19692;52.998;9.116;2023-05-10T05:43:28;13.00;99.90
33328;DHT22;19692;52.998;9.116;2023-05-10T05:45:54;12.80;99.90
33328;DHT22;19692;52.998;9.116;2023-05-10T05:48:20;12.80;99.90
33328;DHT22;19692;52.998;9.116;2023-05-10T05:50:46;12.70;99.90
33328;DHT22;19692;52.998;9.116;2023-05-10T05:53:11;12.70;99.90
33328;DHT22;19692;52.998;9.116;2023-05-10T05:55:37;12.80;99.90
33328;DHT22;19692;52.998;9.116;2023-05-10T05:58:03;12.70;99.90
33328;DHT22;19692;52.998;9.116;2023-05-10T06:00:29;12.70;99.90
33328;DHT22;19692;52.998;9.116;2023-05-10T06:02:54;12.80;99.90
33328;DHT22;19692;52.998;9.116;2023-05-10T06:05:20;12.80;99.90
33328;DHT22;19692;52.998;9.116;2023-05-10T06:07:46;12.80;99.90
33328;DHT22;19692;52.998;9.116;2023-05-10T06:10:12;12.90;99.90
33328;DHT22;19692;52.998;9.116;2023-05-10T06:12:37;12.70;99.90
33328;DHT22;19692;52.998;9.116;2023-05-10T06:15:03;12.50;99.90
33328;DHT22;19692;52.998;9.116;2023-05-10T06:17:30;12.40;99.90
33328;DHT22;19692;52.998;9.116;2023-05-10T06:19:56;12.50;99.90
33328;DHT22;19692;52.998;9.116;2023-05-10T06:22:21;12.50;99.90
33328;DHT22;19692;52.998;9.116;2023-05-10T06:24:48;12.40;99.90
33328;DHT22;19692;52.998;9.116;2023-05-10T06:27:14;12.30;99.90
33328;DHT22;19692;52.998;9.116;2023-05-10T06:29:40;12.20;99.90
33328;DHT22;19692;52.998;9.116;2023-05-10T06:32:06;12.10;99.90
33328;DHT22;19692;52.998;9.116;2023-05-10T06:34:32;12.00;99.90
33328;DHT22;19692;52.998;9.116;2023-05-10T06:36:57;12.00;99.90
33328;DHT22;19692;52.998;9.116;2023-05-10T06:39:23;12.10;99.90
33328;DHT22;19692;52.998;9.116;2023-05-10T06:41:51;12.20;99.90
33328;DHT22;19692;52.998;9.116;2023-05-10T06:44:17;12.20;99.90
33328;DHT22;19692;52.998;9.116;2023-05-10T06:46:43;12.20;99.90
33328;DHT22;19692;52.998;9.116;2023-05-10T06:49:09;12.10;99.90
33328;DHT22;19692;52.998;9.116;2023-05-10T06:51:35;11.90;99.90
33328;DHT22;19692;52.998;9.116;2023-05-10T06:54:01;11.80;99.90
33328;DHT22;19692;52.998;9.116;2023-05-10T06:56:27;11.90;99.90
33328;DHT22;19692;52.998;9.116;2023-05-10T06:58:53;11.80;99.90
33328;DHT22;19692;52.998;9.116;2023-05-10T07:01:18;11.70;99.90
33328;DHT22;19692;52.998;9.116;2023-05-10T07:03:44;11.70;99.90
33328;DHT22;19692;52.998;9.116;2023-05-10T07:06:10;11.60;99.90
33328;DHT22;19692;52.998;9.116;2023-05-10T07:08:36;11.60;99.90
33328;DHT22;19692;52.998;9.116;2023-05-10T07:11:03;11.40;99.90
33328;DHT22;19692;52.998;9.116;2023-05-10T07:13:30;11.30;99.90
33328;DHT22;19692;52.998;9.116;2023-05-10T07:15:57;11.40;99.90
33328;DHT22;19692;52.998;9.116;2023-05-10T07:18:24;11.40;99.90
33328;DHT22;19692;52.998;9.116;2023-05-10T07:20:50;11.40;99.90
33328;DHT22;19692;52.998;9.116;2023-05-10T07:23:16;11.20;99.90
33328;DHT22;19692;52.998;9.116;2023-05-10T07:25:45;11.30;99.90
33328;DHT22;19692;52.998;9.116;2023-05-10T07:28:12;11.20;99.90
33328;DHT22;19692;52.998;9.116;2023-05-10T07:30:39;11.30;99.90
33328;DHT22;19692;52.998;9.116;2023-05-10T07:33:05;11.50;99.90
33328;DHT22;19692;52.998;9.116;2023-05-10T07:35:31;11.40;99.90
33328;DHT22;19692;52.998;9.116;2023-05-10T07:37:57;11.40;99.90
33328;DHT22;19692;52.998;9.116;2023-05-10T07:40:22;11.50;99.90
33328;DHT22;19692;52.998;9.116;2023-05-10T07:42:48;11.70;99.90
33328;DHT22;19692;52.998;9.116;2023-05-10T07:45:14;11.80;99.90
33328;DHT22;19692;52.998;9.116;2023-05-10T07:47:40;11.90;99.90
33328;DHT22;19692;52.998;9.116;2023-05-10T07:50:06;11.80;99.90
33328;DHT22;19692;52.998;9.116;2023-05-10T07:52:32;11.80;99.90
33328;DHT22;19692;52.998;9.116;2023-05-10T07:54:58;11.70;99.90
33328;DHT22;19692;52.998;9.116;2023-05-10T07:57:24;11.70;99.90
33328;DHT22;19692;52.998;9.116;2023-05-10T07:59:50;11.90;99.90
33328;DHT22;19692;52.998;9.116;2023-05-10T08:02:15;11.70;99.90
33328;DHT22;19692;52.998;9.116;2023-05-10T08:04:41;11.80;99.90
33328;DHT22;19692;52.998;9.116;2023-05-10T08:07:07;12.00;99.90
33328;DHT22;19692;52.998;9.116;2023-05-10T08:09:33;12.10;99.90
33328;DHT22;19692;52.998;9.116;2023-05-10T08:11:59;12.30;99.90
33328;DHT22;19692;52.998;9.116;2023-05-10T08:14:26;12.50;99.90
33328;DHT22;19692;52.998;9.116;2023-05-10T08:16:53;12.50;99.90
33328;DHT22;19692;52.998;9.116;2023-05-10T08:19:19;12.60;99.90
33328;DHT22;19692;52.998;9.116;2023-05-10T08:21:46;12.80;99.90
33328;DHT22;19692;52.998;9.116;2023-05-10T08:24:12;13.00;99.90
33328;DHT22;19692;52.998;9.116;2023-05-10T08:26:38;13.20;99.90
33328;DHT22;19692;52.998;9.116;2023-05-10T08:29:04;13.40;99.90
33328;DHT22;19692;52.998;9.116;2023-05-10T08:31:30;13.50;99.90
33328;DHT22;19692;52.998;9.116;2023-05-10T08:33:55;13.50;99.90
33328;DHT22;19692;52.998;9.116;2023-05-10T08:36:21;13.60;99.90
33328;DHT22;19692;52.998;9.116;2023-05-10T08:38:52;13.80;99.90
33328;DHT22;19692;52.998;9.116;2023-05-10T08:41:22;14.00;99.90
33328;DHT22;19692;52.998;9.116;2023-05-10T08:43:53;14.10;99.90
33328;DHT22;19692;52.998;9.116;2023-05-10T08:46:21;13.80;99.90
33328;DHT22;19692;52.998;9.116;2023-05-10T08:48:49;13.90;99.90
33328;DHT22;19692;52.998;9.116;2023-05-10T08:51:22;14.00;99.90
33328;DHT22;19692;52.998;9.116;2023-05-10T08:53:52;14.20;99.90
33328;DHT22;19692;52.998;9.116;2023-05-10T08:56:18;14.10;99.90
33328;DHT22;19692;52.998;9.116;2023-05-10T08:58:45;14.20;99.90
33328;DHT22;19692;52.998;9.116;2023-05-10T09:01:12;14.30;99.90
33328;DHT22;19692;52.998;9.116;2023-05-10T09:03:39;14.40;99.90
33328;DHT22;19692;52.998;9.116;2023-05-10T09:06:05;14.40;99.90
33328;DHT22;19692;52.998;9.116;2023-05-10T09:08:32;14.60;99.90
33328;DHT22;19692;52.998;9.116;2023-05-10T09:11:00;14.80;99.90
33328;DHT22;19692;52.998;9.116;2023-05-10T09:13:26;14.90;99.90
33328;DHT22;19692;52.998;9.116;2023-05-10T09:15:53;15.00;99.90
33328;DHT22;19692;52.998;9.116;2023-05-10T09:18:19;15.10;99.90
33328;DHT22;19692;52.998;9.116;2023-05-10T09:20:44;15.20;99.90
33328;DHT22;19692;52.998;9.116;2023-05-10T09:23:10;15.20;99.90
33328;DHT22;19692;52.998;9.116;2023-05-10T09:25:36;15.20;99.90
33328;DHT22;19692;52.998;9.116;2023-05-10T09:28:06;15.30;99.90
33328;DHT22;19692;52.998;9.116;2023-05-10T09:30:34;15.30;99.90
33328;DHT22;19692;52.998;9.116;2023-05-10T09:33:00;15.30;99.90
33328;DHT22;19692;52.998;9.116;2023-05-10T09:35:29;15.20;99.90
33328;DHT22;19692;52.998;9.116;2023-05-10T09:37:58;15.10;99.90
33328;DHT22;19692;52.998;9.116;2023-05-10T09:40:27;14.90;99.90
33328;DHT22;19692;52.998;9.116;2023-05-10T09:43:06;14.80;99.90
33328;DHT22;19692;52.998;9.116;2023-05-10T09:45:34;15.00;99.90
33328;DHT22;19692;52.998;9.116;2023-05-10T09:48:01;15.30;99.90
33328;DHT22;19692;52.998;9.116;2023-05-10T09:50:31;15.60;99.90
33328;DHT22;19692;52.998;9.116;2023-05-10T09:53:01;15.80;99.90
33328;DHT22;19692;52.998;9.116;2023-05-10T09:58:04;16.10;99.90
33328;DHT22;19692;52.998;9.116;2023-05-10T10:00:36;16.30;99.90
33328;DHT22;19692;52.998;9.116;2023-05-10T10:03:03;16.60;99.90
33328;DHT22;19692;52.998;9.116;2023-05-10T10:05:33;16.90;99.90
33328;DHT22;19692;52.998;9.116;2023-05-10T10:08:02;16.80;99.90
33328;DHT22;19692;52.998;9.116;2023-05-10T10:10:32;16.50;99.90
33328;DHT22;19692;52.998;9.116;2023-05-10T10:12:59;16.50;99.90
33328;DHT22;19692;52.998;9.116;2023-05-10T10:15:25;16.20;99.90
33328;DHT22;19692;52.998;9.116;2023-05-10T10:17:52;16.20;99.90
33328;DHT22;19692;52.998;9.116;2023-05-10T10:20:21;16.40;99.90
33328;DHT22;19692;52.998;9.116;2023-05-10T10:22:48;16.60;99.90
33328;DHT22;19692;52.998;9.116;2023-05-10T10:25:15;16.80;99.90
33328;DHT22;19692;52.998;9.116;2023-05-10T10:28:01;16.90;99.90
33328;DHT22;19692;52.998;9.116;2023-05-10T10:30:48;17.30;99.90
33328;DHT22;19692;52.998;9.116;2023-05-10T10:33:36;17.60;99.90
33328;DHT22;19692;52.998;9.116;2023-05-10T10:36:05;17.80;99.90
33328;DHT22;19692;52.998;9.116;2023-05-10T10:38:54;17.80;99.90
33328;DHT22;19692;52.998;9.116;2023-05-10T10:41:33;17.70;99.90
33328;DHT22;19692;52.998;9.116;2023-05-10T10:47:28;17.20;99.90
33328;DHT22;19692;52.998;9.116;2023-05-10T10:52:28;16.90;99.90
33328;DHT22;19692;52.998;9.116;2023-05-10T10:55:12;17.00;99.90
33328;DHT22;19692;52.998;9.116;2023-05-10T10:57:49;17.10;99.90
33328;DHT22;19692;52.998;9.116;2023-05-10T11:00:35;17.00;99.90
33328;DHT22;19692;52.998;9.116;2023-05-10T11:03:12;16.90;99.90
33328;DHT22;19692;52.998;9.116;2023-05-10T11:05:49;16.90;99.90
33328;DHT22;19692;52.998;9.116;2023-05-10T11:08:34;16.80;99.90
33328;DHT22;19692;52.998;9.116;2023-05-10T11:11:06;16.90;99.90
33328;DHT22;19692;52.998;9.116;2023-05-10T11:16:11;16.90;99.90
33328;DHT22;19692;52.998;9.116;2023-05-10T11:18:38;17.10;99.90
33328;DHT22;19692;52.998;9.116;2023-05-10T11:21:04;17.20;99.90
33328;DHT22;19692;52.998;9.116;2023-05-10T11:26:12;17.30;99.90
33328;DHT22;19692;52.998;9.116;2023-05-10T11:28:46;17.30;99.90
33328;DHT22;19692;52.998;9.116;2023-05-10T11:31:16;17.20;99.90
33328;DHT22;19692;52.998;9.116;2023-05-10T11:33:46;17.00;99.90
33328;DHT22;19692;52.998;9.116;2023-05-10T11:36:25;16.70;99.90
33328;DHT22;19692;52.998;9.116;2023-05-10T11:38:53;16.70;99.90
33328;DHT22;19692;52.998;9.116;2023-05-10T11:41:21;16.60;99.90
33328;DHT22;19692;52.998;9.116;2023-05-10T11:43:50;16.70;99.90
33328;DHT22;19692;52.998;9.116;2023-05-10T11:46:18;16.80;99.90
33328;DHT22;19692;52.998;9.116;2023-05-10T11:48:47;16.90;99.90
33328;DHT22;19692;52.998;9.116;2023-05-10T11:51:15;16.90;99.90
33328;DHT22;19692;52.998;9.116;2023-05-10T11:53:45;17.20;99.90
33328;DHT22;19692;52.998;9.116;2023-05-10T11:56:11;17.50;99.90
33328;DHT22;19692;52.998;9.116;2023-05-10T11:58:39;17.80;99.90
33328;DHT22;19692;52.998;9.116;2023-05-10T12:01:07;17.90;99.90
33328;DHT22;19692;52.998;9.116;2023-05-10T12:03:33;17.80;99.90
33328;DHT22;19692;52.998;9.116;2023-05-10T12:06:00;17.80;99.90
33328;DHT22;19692;52.998;9.116;2023-05-10T12:08:28;18.00;99.90
33328;DHT22;19692;52.998;9.116;2023-05-10T12:11:06;17.80;99.90
33328;DHT22;19692;52.998;9.116;2023-05-10T12:13:34;17.50;99.90
33328;DHT22;19692;52.998;9.116;2023-05-10T12:16:13;17.20;99.90
33328;DHT22;19692;52.998;9.116;2023-05-10T12:18:43;17.10;99.90
33328;DHT22;19692;52.998;9.116;2023-05-10T12:21:11;16.70;99.90
33328;DHT22;19692;52.998;9.116;2023-05-10T12:23:37;16.60;99.90
33328;DHT22;19692;52.998;9.116;2023-05-10T12:26:04;16.70;99.90
33328;DHT22;19692;52.998;9.116;2023-05-10T12:28:31;16.90;99.90
33328;DHT22;19692;52.998;9.116;2023-05-10T12:30:59;17.10;99.90
33328;DHT22;19692;52.998;9.116;2023-05-10T12:33:25;17.10;99.90
33328;DHT22;19692;52.998;9.116;2023-05-10T12:35:52;17.00;99.90
33328;DHT22;19692;52.998;9.116;2023-05-10T12:38:34;17.00;99.90
33328;DHT22;19692;52.998;9.116;2023-05-10T12:41:07;17.10;99.90
33328;DHT22;19692;52.998;9.116;2023-05-10T12:43:37;16.80;99.90
33328;DHT22;19692;52.998;9.116;2023-05-10T12:46:10;16.60;99.90
33328;DHT22;19692;52.998;9.116;2023-05-10T12:48:38;16.40;99.90
33328;DHT22;19692;52.998;9.116;2023-05-10T12:51:06;16.00;99.90
33328;DHT22;19692;52.998;9.116;2023-05-10T12:53:42;15.50;99.90
33328;DHT22;19692;52.998;9.116;2023-05-10T12:56:11;15.30;99.90
33328;DHT22;19692;52.998;9.116;2023-05-10T12:58:38;15.10;99.90
33328;DHT22;19692;52.998;9.116;2023-05-10T13:01:04;15.00;99.90
33328;DHT22;19692;52.998;9.116;2023-05-10T13:03:30;14.90;99.90
33328;DHT22;19692;52.998;9.116;2023-05-10T13:05:56;14.90;99.90
33328;DHT22;19692;52.998;9.116;2023-05-10T13:08:22;15.00;99.90
33328;DHT22;19692;52.998;9.116;2023-05-10T13:10:48;15.30;99.90
33328;DHT22;19692;52.998;9.116;2023-05-10T13:13:14;15.80;99.90
33328;DHT22;19692;52.998;9.116;2023-05-10T13:15:40;16.20;99.90
33328;DHT22;19692;52.998;9.116;2023-05-10T13:18:06;16.40;99.90
33328;DHT22;19692;52.998;9.116;2023-05-10T13:20:32;16.30;99.90
33328;DHT22;19692;52.998;9.116;2023-05-10T13:22:58;16.20;99.90
33328;DHT22;19692;52.998;9.116;2023-05-10T13:25:23;16.30;99.90
33328;DHT22;19692;52.998;9.116;2023-05-10T13:27:49;16.20;99.90
33328;DHT22;19692;52.998;9.116;2023-05-10T13:30:15;16.20;99.90
33328;DHT22;19692;52.998;9.116;2023-05-10T13:32:41;16.50;99.90
33328;DHT22;19692;52.998;9.116;2023-05-10T13:35:09;16.50;99.90
33328;DHT22;19692;52.998;9.116;2023-05-10T13:37:35;16.60;99.90
33328;DHT22;19692;52.998;9.116;2023-05-10T13:40:03;16.40;99.90
33328;DHT22;19692;52.998;9.116;2023-05-10T13:42:29;16.10;99.90
33328;DHT22;19692;52.998;9.116;2023-05-10T13:44:56;16.00;99.90
33328;DHT22;19692;52.998;9.116;2023-05-10T13:47:22;16.00;99.90
33328;DHT22;19692;52.998;9.116;2023-05-10T13:49:48;16.10;99.90
33328;DHT22;19692;52.998;9.116;2023-05-10T13:52:14;16.10;99.90
33328;DHT22;19692;52.998;9.116;2023-05-10T13:54:39;16.10;99.90
33328;DHT22;19692;52.998;9.116;2023-05-10T13:57:06;16.00;99.90
33328;DHT22;19692;52.998;9.116;2023-05-10T13:59:32;16.00;99.90
33328;DHT22;19692;52.998;9.116;2023-05-10T14:01:58;16.00;99.90
33328;DHT22;19692;52.998;9.116;2023-05-10T14:04:25;16.10;99.90
33328;DHT22;19692;52.998;9.116;2023-05-10T14:06:50;16.10;99.90
33328;DHT22;19692;52.998;9.116;2023-05-10T14:09:18;16.40;99.90
33328;DHT22;19692;52.998;9.116;2023-05-10T14:11:43;16.60;99.90
33328;DHT22;19692;52.998;9.116;2023-05-10T14:14:10;16.70;99.90
33328;DHT22;19692;52.998;9.116;2023-05-10T14:16:36;16.90;99.90
33328;DHT22;19692;52.998;9.116;2023-05-10T14:19:01;17.00;99.90
33328;DHT22;19692;52.998;9.116;2023-05-10T14:21:27;17.00;99.90
33328;DHT22;19692;52.998;9.116;2023-05-10T14:23:56;17.20;99.90
33328;DHT22;19692;52.998;9.116;2023-05-10T14:26:22;17.20;99.90
33328;DHT22;19692;52.998;9.116;2023-05-10T14:28:48;17.00;99.90
33328;DHT22;19692;52.998;9.116;2023-05-10T14:31:14;17.20;99.90
33328;DHT22;19692;52.998;9.116;2023-05-10T14:33:42;17.20;99.90
33328;DHT22;19692;52.998;9.116;2023-05-10T14:36:08;17.30;99.90
33328;DHT22;19692;52.998;9.116;2023-05-10T14:38:34;17.30;99.90
33328;DHT22;19692;52.998;9.116;2023-05-10T14:41:00;17.50;99.90
33328;DHT22;19692;52.998;9.116;2023-05-10T14:43:26;17.70;99.90
33328;DHT22;19692;52.998;9.116;2023-05-10T14:45:52;18.00;99.90
33328;DHT22;19692;52.998;9.116;2023-05-10T14:48:18;18.30;99.90
33328;DHT22;19692;52.998;9.116;2023-05-10T14:50:45;18.50;99.90
33328;DHT22;19692;52.998;9.116;2023-05-10T14:53:11;18.80;99.90
33328;DHT22;19692;52.998;9.116;2023-05-10T14:55:37;18.90;99.90
33328;DHT22;19692;52.998;9.116;2023-05-10T14:58:03;19.00;99.90
33328;DHT22;19692;52.998;9.116;2023-05-10T15:00:30;18.80;99.90
33328;DHT22;19692;52.998;9.116;2023-05-10T15:02:56;18.80;99.90
33328;DHT22;19692;52.998;9.116;2023-05-10T15:05:22;18.60;99.90
33328;DHT22;19692;52.998;9.116;2023-05-10T15:07:48;18.70;99.90
33328;DHT22;19692;52.998;9.116;2023-05-10T15:10:14;18.90;99.90
33328;DHT22;19692;52.998;9.116;2023-05-10T15:12:40;18.70;99.90
33328;DHT22;19692;52.998;9.116;2023-05-10T15:15:09;18.60;99.90
33328;DHT22;19692;52.998;9.116;2023-05-10T15:17:35;18.60;99.90
33328;DHT22;19692;52.998;9.116;2023-05-10T15:20:01;18.50;99.90
33328;DHT22;19692;52.998;9.116;2023-05-10T15:22:29;18.20;99.90
33328;DHT22;19692;52.998;9.116;2023-05-10T15:24:57;18.20;99.90
33328;DHT22;19692;52.998;9.116;2023-05-10T15:27:25;17.90;99.90
33328;DHT22;19692;52.998;9.116;2023-05-10T15:29:54;17.90;99.90
33328;DHT22;19692;52.998;9.116;2023-05-10T15:32:20;17.90;99.90
33328;DHT22;19692;52.998;9.116;2023-05-10T15:34:46;17.90;99.90
33328;DHT22;19692;52.998;9.116;2023-05-10T15:37:11;18.00;99.90
33328;DHT22;19692;52.998;9.116;2023-05-10T15:39:37;18.20;99.90
33328;DHT22;19692;52.998;9.116;2023-05-10T15:42:03;18.10;99.90
33328;DHT22;19692;52.998;9.116;2023-05-10T15:44:29;18.00;99.90
33328;DHT22;19692;52.998;9.116;2023-05-10T15:46:55;18.00;99.90
33328;DHT22;19692;52.998;9.116;2023-05-10T15:49:23;18.00;99.90
33328;DHT22;19692;52.998;9.116;2023-05-10T15:51:49;17.90;99.90
33328;DHT22;19692;52.998;9.116;2023-05-10T15:54:15;18.00;99.90
33328;DHT22;19692;52.998;9.116;2023-05-10T15:56:41;18.00;99.90
33328;DHT22;19692;52.998;9.116;2023-05-10T15:59:07;18.00;99.90
33328;DHT22;19692;52.998;9.116;2023-05-10T16:01:34;17.90;99.90
33328;DHT22;19692;52.998;9.116;2023-05-10T16:04:00;18.00;99.90